Time;durP1;ratioP1;P1;durP2;ratioP2;P2;SDS_P1;SDS_P2;PMS_P1;PMS_P2;Temp;Humidity;BMP_temperature;BMP_pressure;BME280_temperature;BME280_humidity;BME280_pressure;Samples;Min_cycle;Max_cycle;Signal;HPM_P1;HPM_P2
2023/11/07 00:01:26;;;;;;;;;;;23.00;50.30;;;;;;5114694;28;19924;-60
2023/11/07 00:03:54;;;;;;;;;;;23.10;50.30;;;;;;5114974;28;20023;-60
2023/11/07 00:06:21;;;;;;;;;;;23.10;50.30;;;;;;5114446;28;19924;-60
2023/11/07 00:08:48;;;;;;;;;;;23.10;50.80;;;;;;5114455;28;19924;-60
2023/11/07 00:11:15;;;;;;;;;;;23.10;50.30;;;;;;5114317;28;20391;-60
2023/11/07 00:13:42;;;;;;;;;;;23.10;50.30;;;;;;5114710;28;20269;-60
2023/11/07 00:16:11;;;;;;;;;;;23.10;50.30;;;;;;5114524;28;19954;-60
2023/11/07 00:18:38;;;;;;;;;;;23.10;50.30;;;;;;5114803;28;20010;-60
2023/11/07 00:21:06;;;;;;;;;;;23.00;50.20;;;;;;5096067;28;20379;-60
2023/11/07 00:23:33;;;;;;;;;;;23.00;50.20;;;;;;5114055;28;20387;-60
2023/11/07 00:26:00;;;;;;;;;;;23.00;50.20;;;;;;5114523;28;19924;-60
2023/11/07 00:28:27;;;;;;;;;;;23.00;50.30;;;;;;5114636;28;19953;-60
2023/11/07 00:30:54;;;;;;;;;;;23.00;50.30;;;;;;5114388;28;19927;-60
2023/11/07 00:33:20;;;;;;;;;;;23.00;50.20;;;;;;5096192;28;20340;-60
2023/11/07 00:35:48;;;;;;;;;;;23.00;50.20;;;;;;5114137;28;19963;-60
2023/11/07 00:38:15;;;;;;;;;;;23.00;50.30;;;;;;5114321;28;19931;-60
2023/11/07 00:40:42;;;;;;;;;;;23.00;50.30;;;;;;5114195;28;19928;-60
2023/11/07 00:43:09;;;;;;;;;;;23.00;50.30;;;;;;5114196;28;20363;-60
2023/11/07 00:45:36;;;;;;;;;;;23.00;50.30;;;;;;5114398;28;19931;-60
2023/11/07 00:48:03;;;;;;;;;;;23.00;50.30;;;;;;5114014;28;19924;-60
2023/11/07 00:50:30;;;;;;;;;;;23.00;50.30;;;;;;5114337;28;19923;-60
2023/11/07 00:52:57;;;;;;;;;;;23.00;50.30;;;;;;5113815;28;19931;-60
2023/11/07 00:55:24;;;;;;;;;;;23.00;50.30;;;;;;5113922;28;19923;-60
2023/11/07 00:57:51;;;;;;;;;;;23.00;50.30;;;;;;5114124;28;20047;-60
2023/11/07 01:00:19;;;;;;;;;;;23.00;50.80;;;;;;5113939;28;19928;-60
2023/11/07 01:02:47;;;;;;;;;;;23.00;50.30;;;;;;5113930;28;19928;-60
2023/11/07 01:05:14;;;;;;;;;;;23.00;50.30;;;;;;5112972;28;19930;-60
2023/11/07 01:07:41;;;;;;;;;;;23.00;50.30;;;;;;5113522;28;19923;-59
2023/11/07 01:10:08;;;;;;;;;;;23.00;50.30;;;;;;5113922;28;19934;-61
2023/11/07 01:12:35;;;;;;;;;;;23.00;50.30;;;;;;5113661;28;19981;-60
2023/11/07 01:15:05;;;;;;;;;;;23.00;50.30;;;;;;5113714;28;19931;-60
2023/11/07 01:17:32;;;;;;;;;;;23.00;50.30;;;;;;5095738;28;19973;-60
2023/11/07 01:19:59;;;;;;;;;;;23.00;50.30;;;;;;5113423;28;19923;-60
2023/11/07 01:22:27;;;;;;;;;;;23.00;50.20;;;;;;5113586;28;19935;-60
2023/11/07 01:24:54;;;;;;;;;;;23.00;50.20;;;;;;5113474;28;19924;-59
2023/11/07 01:27:21;;;;;;;;;;;23.00;50.10;;;;;;5112641;28;19970;-59
2023/11/07 01:29:48;;;;;;;;;;;23.00;50.10;;;;;;5112329;28;19959;-60
2023/11/07 01:32:15;;;;;;;;;;;23.00;50.00;;;;;;5095586;28;19935;-60
2023/11/07 01:34:42;;;;;;;;;;;23.10;50.10;;;;;;5112886;28;19963;-60
2023/11/07 01:37:09;;;;;;;;;;;23.10;50.00;;;;;;5113549;28;20335;-60
2023/11/07 01:39:36;;;;;;;;;;;23.00;49.90;;;;;;5113047;28;20030;-60
2023/11/07 01:42:03;;;;;;;;;;;23.10;50.00;;;;;;5113439;28;19954;-60
2023/11/07 01:44:30;;;;;;;;;;;23.10;49.90;;;;;;5113239;28;20415;-60
2023/11/07 01:46:58;;;;;;;;;;;23.10;50.00;;;;;;5113270;28;19985;-60
2023/11/07 01:49:27;;;;;;;;;;;23.10;50.00;;;;;;5113108;28;20380;-60
2023/11/07 01:51:56;;;;;;;;;;;23.00;49.90;;;;;;5113338;28;19978;-60
2023/11/07 01:54:25;;;;;;;;;;;23.00;50.00;;;;;;5112776;28;19958;-60
2023/11/07 01:56:52;;;;;;;;;;;23.00;50.00;;;;;;5113655;28;19967;-60
2023/11/07 01:59:19;;;;;;;;;;;23.00;50.00;;;;;;5095467;28;19928;-60
2023/11/07 02:01:47;;;;;;;;;;;23.00;50.00;;;;;;5113049;28;19978;-60
2023/11/07 02:04:14;;;;;;;;;;;23.00;50.00;;;;;;5112788;28;19931;-60
2023/11/07 02:06:42;;;;;;;;;;;23.00;50.00;;;;;;5112798;28;20479;-60
2023/11/07 02:09:09;;;;;;;;;;;23.00;50.00;;;;;;5113391;28;20010;-60
2023/11/07 02:11:36;;;;;;;;;;;23.00;50.00;;;;;;5112632;28;20005;-60
2023/11/07 02:14:03;;;;;;;;;;;23.00;50.00;;;;;;5112126;28;20006;-61
2023/11/07 02:16:30;;;;;;;;;;;23.00;50.00;;;;;;5114237;28;19923;-60
2023/11/07 02:18:58;;;;;;;;;;;23.00;50.00;;;;;;5116925;28;19923;-60
2023/11/07 02:21:26;;;;;;;;;;;23.00;50.00;;;;;;5117038;28;19924;-60
2023/11/07 02:23:53;;;;;;;;;;;23.00;50.00;;;;;;5116480;28;20411;-60
2023/11/07 02:26:21;;;;;;;;;;;23.00;50.00;;;;;;5098886;28;19986;-60
2023/11/07 02:28:48;;;;;;;;;;;23.00;50.00;;;;;;5098166;28;19931;-60
2023/11/07 02:31:15;;;;;;;;;;;23.00;50.00;;;;;;5116798;28;20336;-60
2023/11/07 02:33:42;;;;;;;;;;;23.00;50.00;;;;;;5116920;28;19923;-60
2023/11/07 02:36:09;;;;;;;;;;;22.90;50.20;;;;;;5116451;28;19928;-60
2023/11/07 02:38:36;;;;;;;;;;;23.00;50.00;;;;;;5115049;28;19924;-60
2023/11/07 02:41:04;;;;;;;;;;;23.00;50.10;;;;;;5116176;28;20022;-60
2023/11/07 02:43:31;;;;;;;;;;;22.90;50.00;;;;;;5116441;28;19923;-60
2023/11/07 02:45:58;;;;;;;;;;;22.90;50.00;;;;;;5115764;28;19946;-60
2023/11/07 02:48:25;;;;;;;;;;;22.90;50.00;;;;;;5098584;28;20281;-60
2023/11/07 02:50:52;;;;;;;;;;;22.90;50.00;;;;;;5116168;28;19971;-60
2023/11/07 02:53:19;;;;;;;;;;;22.90;50.00;;;;;;5116083;28;19970;-60
2023/11/07 02:55:47;;;;;;;;;;;22.90;50.00;;;;;;5116752;28;19985;-60
2023/11/07 02:58:15;;;;;;;;;;;22.90;50.00;;;;;;5098125;28;19927;-60
2023/11/07 03:00:43;;;;;;;;;;;23.00;50.00;;;;;;5115628;28;19928;-60
2023/11/07 03:03:10;;;;;;;;;;;23.00;49.90;;;;;;5115957;28;20428;-62
2023/11/07 03:05:38;;;;;;;;;;;23.00;49.90;;;;;;5116016;28;19927;-60
2023/11/07 03:08:06;;;;;;;;;;;23.00;49.90;;;;;;5115774;28;20019;-60
2023/11/07 03:10:34;;;;;;;;;;;23.00;49.90;;;;;;5116163;28;19924;-60
2023/11/07 03:13:02;;;;;;;;;;;23.00;49.90;;;;;;5115544;28;19924;-60
2023/11/07 03:15:30;;;;;;;;;;;23.00;49.80;;;;;;5116151;28;20021;-60
2023/11/07 03:17:59;;;;;;;;;;;23.00;49.80;;;;;;5125907;27;21247;-60
2023/11/07 03:20:27;;;;;;;;;;;23.00;49.80;;;;;;5136329;27;19923;-60
2023/11/07 03:22:54;;;;;;;;;;;23.00;49.80;;;;;;5128390;27;19923;-60
2023/11/07 03:25:21;;;;;;;;;;;23.00;49.80;;;;;;5133458;27;19940;-60
2023/11/07 03:27:48;;;;;;;;;;;23.00;49.80;;;;;;5114861;28;19924;-60
2023/11/07 03:30:15;;;;;;;;;;;23.00;49.90;;;;;;5115140;28;19931;-61
2023/11/07 03:32:42;;;;;;;;;;;23.00;49.80;;;;;;5115517;28;20379;-60
2023/11/07 03:35:09;;;;;;;;;;;23.00;49.80;;;;;;5114487;28;19931;-60
2023/11/07 03:37:37;;;;;;;;;;;23.00;49.80;;;;;;5115904;28;19947;-60
2023/11/07 03:40:05;;;;;;;;;;;22.90;49.80;;;;;;5114222;28;19950;-60
2023/11/07 03:42:32;;;;;;;;;;;22.90;49.80;;;;;;5115202;28;19924;-60
2023/11/07 03:44:59;;;;;;;;;;;22.90;49.80;;;;;;5115496;28;19997;-60
2023/11/07 03:47:26;;;;;;;;;;;22.90;49.80;;;;;;5115496;28;19931;-60
2023/11/07 03:49:54;;;;;;;;;;;22.90;49.90;;;;;;5115159;28;19927;-60
2023/11/07 03:52:21;;;;;;;;;;;22.90;49.90;;;;;;5114827;28;19923;-60
2023/11/07 03:54:48;;;;;;;;;;;22.90;49.90;;;;;;5114931;28;19924;-60
2023/11/07 03:57:15;;;;;;;;;;;22.90;49.90;;;;;;5114770;28;19986;-60
2023/11/07 03:59:45;;;;;;;;;;;22.90;49.90;;;;;;5130689;27;19928;-60
2023/11/07 04:02:12;;;;;;;;;;;22.80;49.90;;;;;;5096787;28;19928;-60
2023/11/07 04:04:39;;;;;;;;;;;22.80;49.90;;;;;;5114818;28;20408;-60
2023/11/07 04:07:06;;;;;;;;;;;22.90;49.90;;;;;;5114397;28;19932;-60
2023/11/07 04:09:34;;;;;;;;;;;22.80;49.90;;;;;;5115212;28;19924;-60
2023/11/07 04:12:01;;;;;;;;;;;22.80;49.90;;;;;;5114496;28;19927;-60
2023/11/07 04:14:28;;;;;;;;;;;22.80;49.90;;;;;;5114669;28;19924;-60
2023/11/07 04:16:57;;;;;;;;;;;22.80;49.90;;;;;;5114730;28;19932;-60
2023/11/07 04:19:24;;;;;;;;;;;22.80;50.00;;;;;;5104933;28;19928;-60
2023/11/07 04:21:52;;;;;;;;;;;22.80;50.00;;;;;;5094055;28;19978;-60
2023/11/07 04:24:21;;;;;;;;;;;22.80;49.90;;;;;;5094178;28;19998;-60
2023/11/07 04:26:49;;;;;;;;;;;22.80;49.90;;;;;;5094059;28;19931;-60
2023/11/07 04:29:17;;;;;;;;;;;22.90;50.00;;;;;;5094036;28;19931;-60
2023/11/07 04:31:44;;;;;;;;;;;22.80;49.90;;;;;;5094044;28;19991;-60
2023/11/07 04:34:11;;;;;;;;;;;22.80;49.90;;;;;;5093730;28;19985;-59
2023/11/07 04:36:38;;;;;;;;;;;22.90;49.90;;;;;;5093974;28;20015;-60
2023/11/07 04:39:09;;;;;;;;;;;22.90;49.90;;;;;;5075179;28;20368;-60
2023/11/07 04:41:36;;;;;;;;;;;22.90;49.50;;;;;;5093702;28;19923;-60
2023/11/07 04:44:03;;;;;;;;;;;22.90;49.20;;;;;;5076199;28;19932;-60
2023/11/07 04:46:31;;;;;;;;;;;22.90;49.10;;;;;;5093787;28;19970;-60
2023/11/07 04:48:58;;;;;;;;;;;22.90;48.80;;;;;;5095874;28;19954;-60
2023/11/07 04:51:25;;;;;;;;;;;22.90;48.60;;;;;;5096359;28;19930;-59
2023/11/07 04:53:52;;;;;;;;;;;22.90;48.50;;;;;;5096015;28;19924;-60
2023/11/07 04:56:20;;;;;;;;;;;22.90;48.50;;;;;;5113928;28;19924;-60
2023/11/07 04:58:47;;;;;;;;;;;22.90;48.50;;;;;;5113444;28;19971;-60
2023/11/07 05:01:24;;;;;;;;;;;22.90;48.50;;;;;;5113451;28;20299;-59
2023/11/07 05:03:52;;;;;;;;;;;22.90;48.50;;;;;;5113408;28;19970;-60
2023/11/07 05:06:19;;;;;;;;;;;22.90;48.50;;;;;;5095244;28;19924;-60
2023/11/07 05:08:46;;;;;;;;;;;22.80;48.60;;;;;;5089590;28;19939;-59
2023/11/07 05:11:13;;;;;;;;;;;22.80;48.50;;;;;;5112693;28;19959;-60
2023/11/07 05:13:40;;;;;;;;;;;22.80;48.50;;;;;;5123372;27;19935;-60
2023/11/07 05:16:08;;;;;;;;;;;22.90;48.50;;;;;;5122701;27;19931;-60
2023/11/07 05:18:35;;;;;;;;;;;22.80;48.40;;;;;;5134008;27;20018;-59
2023/11/07 05:21:02;;;;;;;;;;;22.80;48.40;;;;;;5134041;27;19945;-59
2023/11/07 05:23:29;;;;;;;;;;;22.80;48.40;;;;;;5134338;27;19946;-59
2023/11/07 05:25:57;;;;;;;;;;;22.80;48.40;;;;;;5121267;27;19927;-59
2023/11/07 05:28:24;;;;;;;;;;;22.70;48.50;;;;;;5101669;28;19924;-59
2023/11/07 05:30:51;;;;;;;;;;;22.70;48.30;;;;;;5092592;28;19955;-59
2023/11/07 05:33:17;;;;;;;;;;;22.70;48.80;;;;;;5092986;28;20389;-59
2023/11/07 05:35:45;;;;;;;;;;;22.70;48.30;;;;;;5103268;28;20386;-59
2023/11/07 05:38:12;;;;;;;;;;;22.70;48.30;;;;;;5100054;28;19981;-59
2023/11/07 05:40:39;;;;;;;;;;;22.70;48.20;;;;;;5124978;28;19934;-59
2023/11/07 05:43:08;;;;;;;;;;;22.70;48.20;;;;;;5119799;28;20429;-59
2023/11/07 05:45:35;;;;;;;;;;;22.70;48.20;;;;;;5109536;28;19924;-59
2023/11/07 05:48:03;;;;;;;;;;;22.70;48.20;;;;;;5109824;28;19924;-59
2023/11/07 05:50:30;;;;;;;;;;;22.70;48.20;;;;;;5114271;28;19924;-59
2023/11/07 05:52:57;;;;;;;;;;;22.70;48.20;;;;;;5117581;28;19989;-59
2023/11/07 05:55:27;;;;;;;;;;;22.70;48.20;;;;;;5131382;27;19940;-59
2023/11/07 05:57:54;;;;;;;;;;;22.70;48.70;;;;;;5114355;27;19924;-60
2023/11/07 06:00:21;;;;;;;;;;;22.70;48.10;;;;;;5137958;27;19961;-59
2023/11/07 06:02:48;;;;;;;;;;;22.70;48.10;;;;;;5111413;27;19997;-60
2023/11/07 06:05:15;;;;;;;;;;;22.70;48.10;;;;;;5098947;27;20275;-59
2023/11/07 06:07:42;;;;;;;;;;;22.70;48.00;;;;;;5130993;27;20295;-59
2023/11/07 06:10:09;;;;;;;;;;;22.70;47.90;;;;;;5116665;28;19932;-60
2023/11/07 06:12:36;;;;;;;;;;;22.80;47.90;;;;;;5098239;28;19943;-59
2023/11/07 06:15:03;;;;;;;;;;;22.80;48.10;;;;;;5117024;27;19924;-59
2023/11/07 06:17:31;;;;;;;;;;;22.80;48.20;;;;;;5120128;27;20291;-59
2023/11/07 06:19:58;;;;;;;;;;;22.80;48.50;;;;;;5099156;28;19932;-58
2023/11/07 06:22:25;;;;;;;;;;;22.90;48.60;;;;;;5097398;28;19969;-61
2023/11/07 06:24:53;;;;;;;;;;;22.90;48.60;;;;;;5110851;28;19932;-60
2023/11/07 06:27:20;;;;;;;;;;;23.00;48.60;;;;;;5093159;28;19955;-54
2023/11/07 06:29:48;;;;;;;;;;;23.00;48.50;;;;;;5110550;27;19928;-59
2023/11/07 06:32:15;;;;;;;;;;;23.10;48.40;;;;;;5109875;27;20376;-60
2023/11/07 06:34:42;;;;;;;;;;;23.10;48.30;;;;;;5109420;28;21536;-60
2023/11/07 06:37:10;;;;;;;;;;;23.10;48.20;;;;;;5122418;27;19943;-60
2023/11/07 06:39:37;;;;;;;;;;;23.10;48.10;;;;;;5090904;27;19928;-60
2023/11/07 06:42:05;;;;;;;;;;;23.10;48.10;;;;;;5097366;28;19930;-59
2023/11/07 06:44:32;;;;;;;;;;;23.20;48.00;;;;;;5098101;28;19928;-59
2023/11/07 06:46:59;;;;;;;;;;;23.20;48.10;;;;;;5098069;27;19989;-60
2023/11/07 06:49:26;;;;;;;;;;;23.20;47.80;;;;;;5112094;27;20375;-61
2023/11/07 06:51:54;;;;;;;;;;;23.30;47.60;;;;;;5101569;27;19970;-61
2023/11/07 06:54:21;;;;;;;;;;;23.30;47.60;;;;;;5097712;28;19927;-61
2023/11/07 06:56:49;;;;;;;;;;;23.30;47.40;;;;;;5096566;28;19967;-63
2023/11/07 06:59:17;;;;;;;;;;;23.30;47.40;;;;;;5096679;27;20308;-61
2023/11/07 07:01:44;;;;;;;;;;;23.30;47.40;;;;;;5090544;28;19932;-60
2023/11/07 07:04:13;;;;;;;;;;;23.30;47.40;;;;;;5092970;27;19932;-60
2023/11/07 07:06:42;;;;;;;;;;;23.30;47.40;;;;;;5092119;28;19927;-61
2023/11/07 07:09:10;;;;;;;;;;;23.40;47.50;;;;;;5090600;28;19932;-60
2023/11/07 07:11:38;;;;;;;;;;;23.40;47.40;;;;;;5084879;27;20006;-63
2023/11/07 07:14:05;;;;;;;;;;;23.40;47.50;;;;;;5109227;27;19924;-62
2023/11/07 07:16:32;;;;;;;;;;;23.50;47.40;;;;;;5101744;27;19936;-59
2023/11/07 07:19:06;;;;;;;;;;;23.50;47.30;;;;;;5107579;27;19927;-61
2023/11/07 07:21:34;;;;;;;;;;;23.50;47.20;;;;;;5106728;27;19970;-60
2023/11/07 07:24:15;;;;;;;;;;;23.60;47.30;;;;;;5105633;28;20330;-61
2023/11/07 07:26:44;;;;;;;;;;;23.60;47.20;;;;;;5100175;27;19943;-60
2023/11/07 07:29:13;;;;;;;;;;;23.60;47.30;;;;;;5101536;27;19971;-61
2023/11/07 07:31:40;;;;;;;;;;;23.60;47.30;;;;;;5083626;27;20663;-57
2023/11/07 07:34:07;;;;;;;;;;;23.60;47.20;;;;;;5098509;28;20148;-60
2023/11/07 07:36:43;;;;;;;;;;;23.70;47.30;;;;;;5103493;27;19946;-61
2023/11/07 07:39:27;;;;;;;;;;;23.70;47.30;;;;;;5082746;27;19935;-61
2023/11/07 07:41:56;;;;;;;;;;;23.70;47.30;;;;;;5086088;27;19939;-61
2023/11/07 07:44:25;;;;;;;;;;;23.70;47.30;;;;;;5099728;27;19939;-61
2023/11/07 07:46:53;;;;;;;;;;;23.80;47.30;;;;;;5103909;27;19928;-60
2023/11/07 07:49:23;;;;;;;;;;;23.80;47.30;;;;;;5096864;27;20430;-61
2023/11/07 07:51:52;;;;;;;;;;;23.90;47.20;;;;;;5096131;27;19985;-61
2023/11/07 07:54:22;;;;;;;;;;;23.90;47.20;;;;;;5099525;27;20523;-60
2023/11/07 07:57:09;;;;;;;;;;;23.90;47.20;;;;;;5101337;27;19927;-61
2023/11/07 07:59:41;;;;;;;;;;;24.00;47.20;;;;;;5105426;27;19934;-60
2023/11/07 08:02:09;;;;;;;;;;;24.00;47.10;;;;;;5107476;27;20490;-60
2023/11/07 08:04:36;;;;;;;;;;;24.00;47.10;;;;;;5106625;27;19967;-59
2023/11/07 08:07:05;;;;;;;;;;;24.10;47.20;;;;;;5108813;27;19974;-60
2023/11/07 08:09:32;;;;;;;;;;;24.10;47.10;;;;;;5104774;27;19933;-61
2023/11/07 08:12:08;;;;;;;;;;;24.10;47.00;;;;;;5098963;27;19927;-61
2023/11/07 08:14:36;;;;;;;;;;;24.10;46.70;;;;;;5088264;27;19931;-62
2023/11/07 08:17:03;;;;;;;;;;;24.20;46.70;;;;;;5086515;28;19928;-61
2023/11/07 08:19:30;;;;;;;;;;;24.20;46.60;;;;;;5101337;27;20323;-61
2023/11/07 08:21:57;;;;;;;;;;;24.20;46.60;;;;;;5085362;27;19924;-61
2023/11/07 08:24:26;;;;;;;;;;;24.20;46.50;;;;;;5104273;27;19932;-60
2023/11/07 08:26:53;;;;;;;;;;;24.20;46.40;;;;;;5104963;27;20403;-61
2023/11/07 08:29:21;;;;;;;;;;;24.30;46.60;;;;;;5100446;27;19923;-60
2023/11/07 08:31:48;;;;;;;;;;;24.30;46.70;;;;;;5108554;27;20597;-61
2023/11/07 08:34:15;;;;;;;;;;;24.30;46.80;;;;;;5097424;27;19935;-60
2023/11/07 08:36:42;;;;;;;;;;;24.40;46.90;;;;;;5108427;27;19924;-59
2023/11/07 08:39:28;;;;;;;;;;;24.40;46.90;;;;;;5104956;27;20433;-59
2023/11/07 08:41:56;;;;;;;;;;;24.50;47.00;;;;;;5102524;27;20015;-59
2023/11/07 08:44:23;;;;;;;;;;;24.50;46.80;;;;;;5118168;27;20014;-57
2023/11/07 08:46:50;;;;;;;;;;;24.50;46.70;;;;;;5100330;27;19928;-58
2023/11/07 08:49:17;;;;;;;;;;;24.50;46.70;;;;;;5106948;27;19923;-57
2023/11/07 08:51:50;;;;;;;;;;;24.60;46.70;;;;;;5086368;28;19924;-56
2023/11/07 08:54:21;;;;;;;;;;;24.60;46.70;;;;;;5104812;27;19994;-60
2023/11/07 08:56:49;;;;;;;;;;;24.60;46.50;;;;;;5104764;27;19975;-60
2023/11/07 08:59:17;;;;;;;;;;;24.70;46.50;;;;;;5091367;27;20014;-62
2023/11/07 09:01:47;;;;;;;;;;;24.70;46.50;;;;;;5112346;27;19923;-61
2023/11/07 09:04:14;;;;;;;;;;;24.70;46.50;;;;;;5114190;27;19931;-59
2023/11/07 09:06:41;;;;;;;;;;;24.80;46.50;;;;;;5103991;28;19927;-61
2023/11/07 09:09:14;;;;;;;;;;;24.80;46.20;;;;;;5105769;27;19981;-61
2023/11/07 09:11:41;;;;;;;;;;;24.80;46.10;;;;;;5103841;27;20441;-61
2023/11/07 09:14:09;;;;;;;;;;;24.90;46.60;;;;;;5104390;27;19928;-61
2023/11/07 09:16:36;;;;;;;;;;;24.90;45.80;;;;;;5106046;27;19944;-59
2023/11/07 09:19:04;;;;;;;;;;;24.90;45.80;;;;;;5100054;27;19932;-59
2023/11/07 09:21:32;;;;;;;;;;;24.90;45.80;;;;;;5102850;28;19955;-60
2023/11/07 09:23:59;;;;;;;;;;;25.00;45.50;;;;;;5077337;28;19932;-60
2023/11/07 09:26:26;;;;;;;;;;;25.00;45.30;;;;;;5083103;28;20411;-60
2023/11/07 09:28:54;;;;;;;;;;;25.10;45.40;;;;;;5082939;28;19932;-60
2023/11/07 09:31:21;;;;;;;;;;;25.10;45.50;;;;;;5078769;28;19930;-59
2023/11/07 09:33:48;;;;;;;;;;;25.10;45.40;;;;;;5077953;28;19968;-60
2023/11/07 09:36:16;;;;;;;;;;;25.10;45.30;;;;;;5067091;28;19958;-60
2023/11/07 09:38:44;;;;;;;;;;;25.20;45.10;;;;;;5097578;28;20731;-60
2023/11/07 09:41:18;;;;;;;;;;;25.20;45.30;;;;;;5075900;28;19939;-61
2023/11/07 09:43:46;;;;;;;;;;;25.20;45.30;;;;;;5078661;28;19936;-60
2023/11/07 09:46:13;;;;;;;;;;;25.30;45.40;;;;;;5081993;28;20019;-58
2023/11/07 09:48:44;;;;;;;;;;;25.30;45.30;;;;;;5078859;28;19932;-61
2023/11/07 09:51:13;;;;;;;;;;;25.30;45.40;;;;;;5096022;28;19976;-58
2023/11/07 09:53:42;;;;;;;;;;;25.30;45.20;;;;;;5079411;28;20336;-59
2023/11/07 09:56:10;;;;;;;;;;;25.40;45.00;;;;;;5095407;28;20299;-59
2023/11/07 09:58:41;;;;;;;;;;;25.40;45.10;;;;;;5101320;28;19971;-61
2023/11/07 10:01:09;;;;;;;;;;;25.40;45.10;;;;;;5103035;28;19939;-59
2023/11/07 10:03:39;;;;;;;;;;;25.50;45.30;;;;;;5108317;28;19931;-60
2023/11/07 10:06:07;;;;;;;;;;;25.50;45.30;;;;;;5099846;28;19963;-61
2023/11/07 10:08:35;;;;;;;;;;;25.60;45.10;;;;;;5101003;28;20019;-61
2023/11/07 10:11:12;;;;;;;;;;;25.60;44.90;;;;;;5101958;28;20490;-60
2023/11/07 10:13:58;;;;;;;;;;;25.60;44.70;;;;;;5100753;28;19928;-59
2023/11/07 10:16:37;;;;;;;;;;;25.60;44.50;;;;;;5083041;28;20440;-56
2023/11/07 10:19:04;;;;;;;;;;;25.70;44.60;;;;;;5106571;28;21291;-59
2023/11/07 10:21:33;;;;;;;;;;;25.60;44.60;;;;;;5104240;28;19930;-59
2023/11/07 10:24:00;;;;;;;;;;;25.60;44.50;;;;;;5107653;28;19929;-60
2023/11/07 10:26:28;;;;;;;;;;;25.60;44.40;;;;;;5086376;28;19973;-61
2023/11/07 10:29:13;;;;;;;;;;;25.70;44.40;;;;;;5100724;28;20050;-61
2023/11/07 10:31:57;;;;;;;;;;;25.70;44.40;;;;;;5108434;28;19924;-59
2023/11/07 10:34:25;;;;;;;;;;;25.70;44.20;;;;;;5101224;28;20272;-59
2023/11/07 10:36:54;;;;;;;;;;;25.70;44.20;;;;;;5100469;28;19932;-59
2023/11/07 10:39:25;;;;;;;;;;;25.70;44.10;;;;;;5103154;27;19935;-59
2023/11/07 10:41:54;;;;;;;;;;;25.70;44.00;;;;;;5107006;27;20022;-58
2023/11/07 10:44:28;;;;;;;;;;;25.70;43.90;;;;;;5107366;27;19924;-58
2023/11/07 10:46:57;;;;;;;;;;;25.70;43.90;;;;;;5109907;27;19990;-59
2023/11/07 10:49:24;;;;;;;;;;;25.80;43.90;;;;;;5105269;27;20268;-58
2023/11/07 10:51:55;;;;;;;;;;;25.80;43.80;;;;;;5107024;27;19932;-59
2023/11/07 10:54:24;;;;;;;;;;;25.80;43.70;;;;;;5106764;27;19932;-59
2023/11/07 10:56:52;;;;;;;;;;;25.80;43.70;;;;;;5112222;27;20012;-57
2023/11/07 10:59:21;;;;;;;;;;;25.80;43.60;;;;;;5107865;27;19934;-58
2023/11/07 11:01:52;;;;;;;;;;;25.80;43.60;;;;;;5112092;27;20548;-59
2023/11/07 11:04:22;;;;;;;;;;;25.80;43.60;;;;;;5107575;27;19931;-58
2023/11/07 11:06:54;;;;;;;;;;;25.90;43.70;;;;;;5111355;27;19927;-59
2023/11/07 11:09:22;;;;;;;;;;;25.80;43.90;;;;;;5112617;27;19924;-59
2023/11/07 11:11:51;;;;;;;;;;;25.90;44.00;;;;;;5110242;27;20022;-59
2023/11/07 11:14:18;;;;;;;;;;;25.80;44.00;;;;;;5106078;27;19927;-60
2023/11/07 11:16:47;;;;;;;;;;;25.80;43.90;;;;;;5103456;27;20307;-60
2023/11/07 11:19:28;;;;;;;;;;;25.80;43.90;;;;;;5110386;27;20322;-60
2023/11/07 11:22:15;;;;;;;;;;;25.80;44.00;;;;;;5106119;27;19928;-60
2023/11/07 11:24:58;;;;;;;;;;;25.80;44.00;;;;;;5104818;27;19978;-60
2023/11/07 11:27:31;;;;;;;;;;;25.80;43.90;;;;;;5111067;27;20441;-60
2023/11/07 11:29:58;;;;;;;;;;;25.90;44.00;;;;;;5088404;28;19930;-59
2023/11/07 11:32:31;;;;;;;;;;;25.80;44.10;;;;;;5106882;27;19931;-60
2023/11/07 11:35:23;;;;;;;;;;;25.80;43.90;;;;;;5106765;27;20340;-60
2023/11/07 11:38:12;;;;;;;;;;;25.80;43.90;;;;;;5112047;27;19928;-59
2023/11/07 11:40:51;;;;;;;;;;;25.80;43.90;;;;;;5084444;28;20368;-60
2023/11/07 11:43:20;;;;;;;;;;;25.80;44.40;;;;;;5107947;27;19923;-60
2023/11/07 11:45:49;;;;;;;;;;;25.80;44.20;;;;;;5101541;27;20368;-58
2023/11/07 11:48:18;;;;;;;;;;;25.90;44.30;;;;;;5103848;27;19927;-60
2023/11/07 11:50:46;;;;;;;;;;;25.80;44.20;;;;;;5106509;27;19928;-59
2023/11/07 11:53:31;;;;;;;;;;;25.80;44.00;;;;;;5108523;27;20298;-59
2023/11/07 11:56:07;;;;;;;;;;;25.80;43.90;;;;;;5078039;28;21765;-58
2023/11/07 11:58:35;;;;;;;;;;;25.80;43.80;;;;;;5098164;27;19928;-58
2023/11/07 12:01:03;;;;;;;;;;;25.80;43.80;;;;;;5073091;28;19977;-58
2023/11/07 12:03:45;;;;;;;;;;;25.80;43.70;;;;;;5107339;27;19958;-58
2023/11/07 12:06:13;;;;;;;;;;;25.80;43.80;;;;;;5102753;27;20458;-60
2023/11/07 12:08:42;;;;;;;;;;;25.80;43.90;;;;;;5100359;27;20395;-61
2023/11/07 12:11:10;;;;;;;;;;;25.80;44.10;;;;;;5103251;27;19931;-58
2023/11/07 12:13:38;;;;;;;;;;;25.70;43.90;;;;;;5102018;27;19928;-61
2023/11/07 12:16:13;;;;;;;;;;;25.70;44.30;;;;;;5116388;27;20046;-59
2023/11/07 12:18:41;;;;;;;;;;;25.70;44.30;;;;;;5104313;27;19938;-60
2023/11/07 12:21:11;;;;;;;;;;;25.70;44.20;;;;;;5104538;27;20280;-62
2023/11/07 12:23:38;;;;;;;;;;;25.70;44.20;;;;;;5105991;27;20817;-61
2023/11/07 12:26:07;;;;;;;;;;;25.70;44.90;;;;;;5104304;27;19984;-60
2023/11/07 12:28:44;;;;;;;;;;;25.80;44.40;;;;;;5105139;27;19932;-61
2023/11/07 12:31:11;;;;;;;;;;;25.70;44.40;;;;;;5101612;27;19924;-60
2023/11/07 12:33:51;;;;;;;;;;;25.70;44.50;;;;;;5101154;27;19979;-61
2023/11/07 12:36:18;;;;;;;;;;;25.80;44.50;;;;;;5103436;27;20329;-61
2023/11/07 12:38:46;;;;;;;;;;;25.70;44.40;;;;;;5104911;27;20555;-60
2023/11/07 12:41:13;;;;;;;;;;;25.70;44.40;;;;;;5106613;27;20016;-57
2023/11/07 12:43:41;;;;;;;;;;;25.70;44.60;;;;;;5101740;27;19939;-60
2023/11/07 12:46:14;;;;;;;;;;;25.70;44.70;;;;;;5103576;27;19932;-58
2023/11/07 12:48:41;;;;;;;;;;;25.70;44.60;;;;;;5104036;27;19936;-60
2023/11/07 12:51:09;;;;;;;;;;;25.70;44.70;;;;;;5108762;27;19928;-60
2023/11/07 12:53:50;;;;;;;;;;;25.70;44.80;;;;;;5105304;27;19932;-61
2023/11/07 12:56:21;;;;;;;;;;;25.70;45.00;;;;;;5096127;27;19928;-60
2023/11/07 12:58:48;;;;;;;;;;;25.70;45.30;;;;;;5100330;27;20010;-60
2023/11/07 13:01:23;;;;;;;;;;;25.70;45.30;;;;;;5101944;28;20376;-58
2023/11/07 13:03:50;;;;;;;;;;;25.70;45.40;;;;;;5107939;27;20005;-58
2023/11/07 13:06:20;;;;;;;;;;;25.70;45.50;;;;;;5086755;28;19928;-60
2023/11/07 13:08:48;;;;;;;;;;;25.70;45.50;;;;;;5085283;28;19977;-62
2023/11/07 13:11:16;;;;;;;;;;;25.70;45.60;;;;;;5078342;28;19924;-60
2023/11/07 13:13:44;;;;;;;;;;;25.70;45.70;;;;;;5106372;27;20273;-61
2023/11/07 13:16:13;;;;;;;;;;;25.70;45.70;;;;;;5103171;27;19928;-60
2023/11/07 13:18:57;;;;;;;;;;;25.70;45.70;;;;;;5102804;28;20063;-58
2023/11/07 13:21:25;;;;;;;;;;;25.60;45.70;;;;;;5102451;27;19936;-60
2023/11/07 13:23:53;;;;;;;;;;;25.60;45.80;;;;;;5102504;28;20023;-60
2023/11/07 13:26:20;;;;;;;;;;;25.60;46.00;;;;;;5087522;28;19928;-60
2023/11/07 13:28:47;;;;;;;;;;;25.60;46.00;;;;;;5101763;28;19977;-60
2023/11/07 13:31:14;;;;;;;;;;;25.60;46.00;;;;;;5098749;27;19943;-61
2023/11/07 13:33:43;;;;;;;;;;;25.60;46.00;;;;;;5104927;28;19924;-58
2023/11/07 13:36:14;;;;;;;;;;;25.60;46.10;;;;;;5093158;28;20392;-60
2023/11/07 13:38:44;;;;;;;;;;;25.60;46.20;;;;;;5102076;28;19935;-60
2023/11/07 13:41:11;;;;;;;;;;;25.60;46.30;;;;;;5100795;28;20022;-60
2023/11/07 13:43:39;;;;;;;;;;;25.60;46.30;;;;;;5103909;28;19927;-60
2023/11/07 13:46:06;;;;;;;;;;;25.50;46.30;;;;;;5101716;28;20328;-60
2023/11/07 13:48:33;;;;;;;;;;;25.50;46.40;;;;;;5086232;28;19924;-58
2023/11/07 13:51:02;;;;;;;;;;;25.50;46.50;;;;;;5100400;28;19981;-58
2023/11/07 13:53:29;;;;;;;;;;;25.50;46.50;;;;;;5116501;27;19932;-60
2023/11/07 13:55:56;;;;;;;;;;;25.50;46.50;;;;;;5096175;28;20466;-61
2023/11/07 13:58:23;;;;;;;;;;;25.50;46.50;;;;;;5092119;28;19928;-64
2023/11/07 14:00:51;;;;;;;;;;;25.40;46.50;;;;;;5104135;28;19962;-61
2023/11/07 14:03:19;;;;;;;;;;;25.40;46.70;;;;;;5105902;27;19924;-60
2023/11/07 14:05:46;;;;;;;;;;;25.40;46.80;;;;;;5104599;28;19928;-61
2023/11/07 14:08:15;;;;;;;;;;;25.30;46.90;;;;;;5092274;28;19935;-61
2023/11/07 14:10:44;;;;;;;;;;;25.30;47.00;;;;;;5102708;28;19988;-60
2023/11/07 14:13:12;;;;;;;;;;;25.20;47.10;;;;;;5104142;27;20377;-64
2023/11/07 14:15:41;;;;;;;;;;;25.20;47.20;;;;;;5109451;27;19943;-63
2023/11/07 14:18:08;;;;;;;;;;;25.10;47.40;;;;;;5104225;27;19969;-62
2023/11/07 14:20:49;;;;;;;;;;;25.00;47.40;;;;;;5104838;27;19923;-64
2023/11/07 14:23:18;;;;;;;;;;;25.00;47.60;;;;;;5087091;28;19932;-61
2023/11/07 14:25:45;;;;;;;;;;;24.90;47.50;;;;;;5105703;27;19931;-61